createdAt,value
2022-08-19T00:01:30.764Z,18.90
2022-08-19T00:04:06.487Z,16.90
2022-08-19T00:06:34.382Z,18.70
2022-08-19T00:09:01.392Z,17.00
2022-08-19T00:13:57.483Z,18.00
2022-08-19T00:16:26.777Z,16.40
2022-08-19T00:18:56.205Z,18.70
2022-08-19T00:21:24.600Z,17.20
2022-08-19T00:23:51.478Z,18.60
2022-08-19T00:26:18.268Z,18.50
2022-08-19T00:28:44.979Z,16.70
2022-08-19T00:31:11.711Z,16.00
2022-08-19T00:33:38.942Z,16.50
2022-08-19T00:36:09.622Z,16.20
2022-08-19T00:38:38.267Z,19.00
2022-08-19T00:41:06.877Z,18.90
2022-08-19T00:43:34.336Z,18.60
2022-08-19T00:46:03.864Z,18.10
2022-08-19T00:48:30.525Z,17.60
2022-08-19T00:50:57.684Z,17.30
2022-08-19T00:53:28.558Z,17.30
2022-08-19T00:56:00.000Z,16.50
2022-08-19T00:58:30.504Z,17.40
2022-08-19T01:00:57.170Z,18.70
2022-08-19T01:03:24.808Z,17.60
2022-08-19T01:05:55.086Z,17.50
2022-08-19T01:08:23.485Z,18.60
2022-08-19T01:10:57.065Z,16.90
2022-08-19T01:13:28.856Z,16.20
2022-08-19T01:16:14.665Z,18.20
2022-08-19T01:18:43.895Z,17.10
2022-08-19T01:21:19.264Z,16.20
2022-08-19T01:23:46.338Z,15.80
2022-08-19T01:26:19.466Z,17.10
2022-08-19T01:28:48.464Z,17.60
2022-08-19T01:31:27.101Z,17.40
2022-08-19T01:33:56.987Z,17.00
2022-08-19T01:36:46.672Z,15.50
2022-08-19T01:39:17.340Z,17.40
2022-08-19T01:41:44.215Z,17.80
2022-08-19T01:44:18.822Z,15.70
2022-08-19T01:46:48.441Z,16.80
2022-08-19T01:49:17.794Z,16.90
2022-08-19T01:54:14.217Z,15.30
2022-08-19T01:56:52.436Z,17.40
2022-08-19T01:59:22.924Z,16.70
2022-08-19T02:01:50.047Z,18.70
2022-08-19T02:06:43.807Z,18.10
2022-08-19T02:09:10.980Z,15.20
2022-08-19T02:11:38.437Z,16.90
2022-08-19T02:14:08.474Z,17.90
2022-08-19T02:16:37.045Z,16.20
2022-08-19T02:19:04.055Z,15.30
2022-08-19T02:21:31.540Z,15.10
2022-08-19T02:23:58.817Z,16.00
2022-08-19T02:26:27.597Z,17.70
2022-08-19T02:28:55.692Z,15.70
2022-08-19T02:31:25.557Z,16.70
2022-08-19T02:33:53.356Z,16.30
2022-08-19T02:36:24.214Z,15.00
2022-08-19T02:38:54.966Z,15.00
2022-08-19T02:41:31.799Z,16.80
2022-08-19T02:44:29.772Z,16.80
2022-08-19T02:46:48.810Z,16.50
2022-08-19T02:49:17.316Z,16.50
2022-08-19T02:51:46.013Z,17.30
2022-08-19T02:54:13.933Z,17.50
2022-08-19T02:56:43.387Z,15.60
2022-08-19T02:59:11.500Z,16.10
2022-08-19T03:01:41.753Z,15.50
2022-08-19T03:04:13.207Z,16.10
2022-08-19T03:06:42.131Z,16.10
2022-08-19T03:09:09.756Z,16.70
2022-08-19T03:11:36.819Z,15.20
2022-08-19T03:14:05.500Z,15.40
2022-08-19T03:16:34.834Z,17.40
2022-08-19T03:19:02.803Z,16.20
2022-08-19T03:21:32.057Z,15.80
2022-08-19T03:24:01.655Z,17.20
2022-08-19T03:28:58.563Z,15.50
2022-08-19T03:31:44.720Z,16.30
2022-08-19T03:34:18.589Z,17.50
2022-08-19T03:39:13.491Z,15.70
2022-08-19T03:41:45.422Z,16.00
2022-08-19T03:44:20.730Z,16.20
2022-08-19T03:46:53.215Z,15.20
2022-08-19T03:49:20.839Z,17.10
2022-08-19T03:51:49.167Z,17.10
2022-08-19T03:54:18.311Z,16.80
2022-08-19T03:56:46.923Z,17.20
2022-08-19T03:59:17.639Z,14.60
2022-08-19T04:01:44.559Z,15.70
2022-08-19T04:04:11.487Z,14.50
2022-08-19T04:06:40.190Z,14.50
2022-08-19T04:09:11.635Z,17.30
2022-08-19T04:11:44.943Z,15.70
2022-08-19T04:14:19.969Z,17.00
2022-08-19T04:16:48.026Z,15.50
2022-08-19T04:19:16.200Z,14.30
2022-08-19T04:21:46.025Z,15.70
2022-08-19T04:24:13.848Z,14.50
2022-08-19T04:26:41.513Z,15.80
2022-08-19T04:29:13.068Z,17.10
2022-08-19T04:31:40.926Z,16.50
2022-08-19T04:34:13.588Z,15.70
2022-08-19T04:36:43.287Z,15.60
2022-08-19T04:39:13.014Z,14.30
2022-08-19T04:41:58.256Z,16.30
2022-08-19T04:49:23.355Z,15.70
2022-08-19T04:51:53.276Z,15.70
2022-08-19T04:57:08.261Z,15.00
2022-08-19T04:59:36.490Z,16.90
2022-08-19T05:02:05.113Z,14.50
2022-08-19T05:04:33.282Z,15.30
2022-08-19T05:07:01.972Z,15.80
2022-08-19T05:09:42.146Z,14.50
2022-08-19T05:14:45.938Z,17.40
2022-08-19T05:17:27.071Z,17.20
2022-08-19T05:20:15.308Z,14.90
2022-08-19T05:22:44.722Z,16.80
2022-08-19T05:25:14.767Z,16.20
2022-08-19T05:27:42.415Z,16.00
2022-08-19T05:30:10.523Z,17.10
2022-08-19T05:32:37.447Z,16.10
2022-08-19T05:35:05.600Z,16.80
2022-08-19T05:39:59.865Z,16.00
2022-08-19T05:42:27.357Z,15.70
2022-08-19T05:49:50.730Z,18.70
2022-08-19T05:52:18.999Z,19.40
2022-08-19T05:54:51.265Z,17.80
2022-08-19T05:57:19.625Z,19.50
2022-08-19T06:04:46.007Z,17.30
2022-08-19T06:07:13.160Z,18.80
2022-08-19T06:09:41.023Z,20.20
2022-08-19T06:14:41.704Z,17.80
2022-08-19T06:17:09.217Z,17.80
2022-08-19T06:19:40.882Z,20.20
2022-08-19T06:22:08.957Z,20.00
2022-08-19T06:24:36.132Z,21.30
2022-08-19T06:27:04.171Z,20.80
2022-08-19T06:29:31.246Z,19.60
2022-08-19T06:32:00.189Z,22.10
2022-08-19T06:34:29.181Z,20.90
2022-08-19T06:36:57.719Z,22.30
2022-08-19T06:39:27.671Z,21.60
2022-08-19T06:41:58.696Z,20.80
2022-08-19T06:44:35.195Z,19.60
2022-08-19T06:47:09.581Z,20.60
2022-08-19T06:52:13.928Z,21.20
2022-08-19T06:54:56.031Z,20.00
2022-08-19T06:57:25.169Z,21.30
2022-08-19T06:59:52.837Z,21.30
2022-08-19T07:02:21.339Z,21.90
2022-08-19T07:07:21.893Z,21.20
2022-08-19T07:09:55.342Z,20.80
2022-08-19T07:12:38.082Z,20.70
2022-08-19T07:15:06.495Z,22.30
2022-08-19T07:17:34.521Z,20.60
2022-08-19T07:20:05.018Z,21.80
2022-08-19T07:22:34.953Z,23.10
2022-08-19T07:25:04.894Z,21.60
2022-08-19T07:27:33.678Z,20.20
2022-08-19T07:34:57.145Z,20.90
2022-08-19T07:37:32.538Z,20.30
2022-08-19T07:40:00.505Z,20.50
2022-08-19T07:42:27.788Z,20.30
2022-08-19T07:44:54.473Z,20.70
2022-08-19T07:47:47.504Z,22.00
2022-08-19T07:50:12.612Z,23.10
2022-08-19T07:52:40.387Z,21.20
2022-08-19T07:55:40.035Z,21.80
2022-08-19T08:00:24.924Z,22.90
2022-08-19T08:02:55.679Z,23.20
2022-08-19T08:05:44.037Z,21.70
2022-08-19T08:08:30.351Z,22.20
2022-08-19T08:10:57.540Z,21.10
2022-08-19T08:13:25.749Z,21.40
2022-08-19T08:15:54.866Z,24.10
2022-08-19T08:18:28.087Z,22.50
2022-08-19T08:20:58.798Z,23.40
2022-08-19T08:23:26.738Z,25.30
2022-08-19T08:25:56.554Z,25.30
2022-08-19T08:28:25.505Z,24.50
2022-08-19T08:30:53.122Z,26.80
2022-08-19T08:33:34.157Z,27.20
2022-08-19T08:36:12.116Z,26.00
2022-08-19T08:38:40.106Z,26.30
2022-08-19T08:41:22.871Z,25.60
2022-08-19T08:43:52.841Z,27.40
2022-08-19T08:46:30.711Z,29.80
2022-08-19T08:49:25.639Z,31.30
2022-08-19T08:52:06.479Z,29.70
2022-08-19T08:54:54.823Z,31.30
2022-08-19T08:57:52.457Z,32.00
2022-08-19T09:00:30.411Z,30.90
2022-08-19T09:02:59.234Z,30.90
2022-08-19T09:05:46.517Z,31.90
2022-08-19T09:08:47.850Z,31.50
2022-08-19T09:11:42.964Z,29.90
2022-08-19T09:14:49.846Z,29.30
2022-08-19T09:17:18.296Z,29.50
2022-08-19T09:19:59.611Z,27.90
2022-08-19T09:24:56.648Z,28.30
2022-08-19T09:27:43.246Z,28.50
2022-08-19T09:30:22.810Z,28.10
2022-08-19T09:35:23.241Z,27.60
2022-08-19T09:40:24.813Z,26.70
2022-08-19T09:42:52.620Z,28.30
2022-08-19T09:45:23.037Z,27.40
2022-08-19T09:47:54.096Z,26.40
2022-08-19T09:50:22.772Z,27.00
2022-08-19T09:55:24.221Z,29.50
2022-08-19T10:02:45.784Z,27.60
2022-08-19T10:05:30.896Z,26.80
2022-08-19T10:07:58.454Z,27.00
2022-08-19T10:10:25.348Z,29.50
2022-08-19T10:15:29.066Z,28.50
2022-08-19T10:22:53.398Z,27.70
2022-08-19T10:25:20.271Z,30.20
2022-08-19T10:27:51.462Z,31.10
2022-08-19T10:30:18.929Z,31.60
2022-08-19T10:32:47.352Z,30.70
2022-08-19T10:35:16.219Z,31.90
2022-08-19T10:37:57.247Z,31.50
2022-08-19T10:40:24.721Z,34.30
2022-08-19T10:42:51.469Z,35.20
2022-08-19T10:47:47.799Z,32.90
2022-08-19T10:50:33.151Z,31.00
2022-08-19T10:53:08.120Z,30.40
2022-08-19T10:55:55.085Z,30.50
2022-08-19T10:58:27.080Z,30.30
2022-08-19T11:00:58.594Z,30.20
2022-08-19T11:03:27.439Z,31.90
2022-08-19T11:06:07.818Z,30.80
2022-08-19T11:08:38.415Z,33.20
2022-08-19T11:11:06.918Z,34.90
2022-08-19T11:13:36.933Z,33.30
2022-08-19T11:16:16.081Z,34.60
2022-08-19T11:18:49.059Z,33.10
2022-08-19T11:21:28.495Z,32.40
2022-08-19T11:23:57.665Z,32.70
2022-08-19T11:26:26.487Z,31.30
2022-08-19T11:28:55.861Z,30.80
2022-08-19T11:31:23.914Z,30.50
2022-08-19T11:33:58.430Z,30.00
2022-08-19T11:36:25.149Z,31.70
2022-08-19T11:38:52.620Z,32.00
2022-08-19T11:41:23.961Z,30.80
2022-08-19T11:43:54.054Z,30.40
2022-08-19T11:46:22.200Z,30.90
2022-08-19T11:51:25.426Z,28.80
2022-08-19T11:53:53.789Z,28.10
2022-08-19T11:56:21.292Z,27.50
2022-08-19T11:58:48.675Z,28.60
2022-08-19T12:01:17.852Z,27.70
2022-08-19T12:03:46.621Z,26.40
2022-08-19T12:06:20.480Z,26.10
2022-08-19T12:08:48.361Z,26.10
2022-08-19T12:13:45.809Z,26.70
2022-08-19T12:16:25.583Z,25.00
2022-08-19T12:18:52.880Z,24.30
2022-08-19T12:21:22.930Z,23.10
2022-08-19T12:23:55.516Z,23.80
2022-08-19T12:26:23.171Z,24.90
2022-08-19T12:28:49.823Z,22.30
2022-08-19T12:31:17.258Z,22.50
2022-08-19T12:36:13.017Z,23.50
2022-08-19T12:38:41.087Z,23.40
2022-08-19T12:41:11.074Z,25.20
2022-08-19T12:43:42.717Z,24.40
2022-08-19T12:46:10.901Z,26.00
2022-08-19T12:51:13.359Z,24.40
2022-08-19T12:56:12.187Z,25.80
2022-08-19T12:58:39.840Z,25.00
2022-08-19T13:01:12.690Z,25.50
2022-08-19T13:03:40.767Z,26.20
2022-08-19T13:06:08.968Z,24.40
2022-08-19T13:08:36.091Z,25.60
2022-08-19T13:11:14.643Z,25.30
2022-08-19T13:13:42.981Z,25.20
2022-08-19T13:16:12.164Z,25.40
2022-08-19T13:18:40.779Z,24.30
2022-08-19T13:21:09.421Z,25.10
2022-08-19T13:23:36.854Z,25.50
2022-08-19T13:26:06.342Z,24.90
2022-08-19T13:28:53.162Z,25.10
2022-08-19T13:31:40.759Z,24.90
2022-08-19T13:34:08.198Z,24.90
2022-08-19T13:41:29.463Z,24.90
2022-08-19T13:43:56.234Z,25.50
2022-08-19T13:46:22.959Z,26.20
2022-08-19T13:48:49.722Z,26.50
2022-08-19T13:51:18.072Z,27.50
2022-08-19T13:53:48.082Z,27.40
2022-08-19T13:56:17.661Z,27.20
2022-08-19T13:58:44.448Z,27.50
2022-08-19T14:01:11.516Z,27.20
2022-08-19T14:03:38.557Z,25.50
2022-08-19T14:06:05.304Z,27.10
2022-08-19T14:08:33.216Z,25.90
2022-08-19T14:11:00.464Z,27.50
2022-08-19T14:16:01.720Z,26.20
2022-08-19T14:18:28.699Z,26.60
2022-08-19T14:20:57.707Z,28.50
2022-08-19T14:23:25.705Z,27.90
2022-08-19T14:25:52.431Z,28.30
2022-08-19T14:30:46.260Z,26.80
2022-08-19T14:33:14.560Z,25.80
2022-08-19T14:38:17.551Z,26.00
2022-08-19T14:40:45.321Z,25.50
2022-08-19T14:43:12.383Z,23.90
2022-08-19T14:45:40.827Z,25.50
2022-08-19T14:48:17.833Z,23.20
2022-08-19T14:53:13.500Z,25.50
2022-08-19T14:55:45.085Z,26.20
2022-08-19T14:58:29.733Z,25.70
2022-08-19T15:01:00.008Z,24.50
2022-08-19T15:05:54.134Z,26.90
2022-08-19T15:08:22.563Z,27.00
2022-08-19T15:15:43.588Z,24.70
2022-08-19T15:18:12.004Z,24.30
2022-08-19T15:25:36.784Z,24.70
2022-08-19T15:28:04.293Z,25.30
2022-08-19T15:32:58.994Z,25.30
2022-08-19T15:35:26.191Z,24.70
2022-08-19T15:37:55.020Z,25.10
2022-08-19T15:40:23.472Z,25.00
2022-08-19T15:42:50.281Z,23.60
2022-08-19T15:45:18.733Z,23.70
2022-08-19T15:50:23.669Z,24.70
2022-08-19T15:52:53.905Z,24.70
2022-08-19T15:55:33.480Z,24.00
2022-08-19T15:58:29.989Z,24.60
2022-08-19T16:01:27.135Z,24.90
2022-08-19T16:04:15.873Z,25.30
2022-08-19T16:06:46.862Z,23.40
2022-08-19T16:09:15.458Z,25.40
2022-08-19T16:11:45.828Z,24.50
2022-08-19T16:14:17.339Z,24.50
2022-08-19T16:16:46.616Z,23.40
2022-08-19T16:19:15.686Z,26.10
2022-08-19T16:21:46.752Z,24.30
2022-08-19T16:24:15.636Z,24.90
2022-08-19T16:26:43.892Z,23.90
2022-08-19T16:29:12.243Z,25.20
2022-08-19T16:31:41.930Z,24.40
2022-08-19T16:34:08.711Z,24.30
2022-08-19T16:36:35.859Z,27.20
2022-08-19T16:39:03.781Z,24.70
2022-08-19T16:46:27.207Z,24.50
2022-08-19T16:48:54.559Z,25.30
2022-08-19T16:51:22.623Z,24.10
2022-08-19T16:56:20.269Z,25.90
2022-08-19T17:06:17.802Z,24.80
2022-08-19T17:08:51.133Z,26.20
2022-08-19T17:11:19.658Z,25.40
2022-08-19T17:13:47.795Z,23.40
2022-08-19T17:16:16.458Z,24.90
2022-08-19T17:23:42.789Z,25.60
2022-08-19T17:26:17.223Z,22.90
2022-08-19T17:28:50.471Z,22.90
2022-08-19T17:31:19.708Z,24.40
2022-08-19T17:33:48.604Z,24.50
2022-08-19T17:36:23.467Z,24.50
2022-08-19T17:38:51.202Z,25.30
2022-08-19T17:41:18.823Z,23.60
2022-08-19T17:43:45.540Z,23.20
2022-08-19T17:46:20.257Z,22.90
2022-08-19T17:48:54.524Z,22.70
2022-08-19T17:51:25.117Z,24.00
2022-08-19T17:53:53.109Z,25.30
2022-08-19T18:01:40.276Z,23.60
2022-08-19T18:04:17.178Z,24.90
2022-08-19T18:09:24.023Z,22.10
2022-08-19T18:11:53.011Z,23.00
2022-08-19T18:14:25.051Z,22.40
2022-08-19T18:19:23.666Z,21.90
2022-08-19T18:21:53.938Z,24.10
2022-08-19T18:24:20.616Z,22.50
2022-08-19T18:26:47.258Z,23.50
2022-08-19T18:31:43.612Z,21.80
2022-08-19T18:34:10.765Z,24.00
2022-08-19T18:36:53.477Z,23.10
2022-08-19T18:42:33.407Z,21.40
2022-08-19T18:50:32.792Z,21.30
2022-08-19T18:52:59.678Z,23.70
2022-08-19T18:57:55.575Z,23.90
2022-08-19T19:05:27.437Z,20.90
2022-08-19T19:07:54.427Z,23.00
2022-08-19T19:12:49.697Z,23.30
2022-08-19T19:15:16.510Z,21.90
2022-08-19T19:20:13.143Z,21.80
2022-08-19T19:25:09.582Z,23.00
2022-08-19T19:30:03.731Z,22.60
2022-08-19T19:32:38.793Z,23.00
2022-08-19T19:40:12.498Z,21.60
2022-08-19T19:45:09.789Z,21.60
2022-08-19T19:47:39.655Z,21.50
2022-08-19T19:50:15.623Z,21.30
2022-08-19T19:52:46.820Z,21.30
2022-08-19T19:57:46.004Z,22.70
2022-08-19T20:00:18.873Z,22.90
2022-08-19T20:05:23.828Z,21.30
2022-08-19T20:08:10.904Z,20.40
2022-08-19T20:10:38.822Z,21.40
2022-08-19T20:13:07.598Z,20.90
2022-08-19T20:20:36.384Z,22.00
2022-08-19T20:25:34.860Z,19.80
2022-08-19T20:30:31.087Z,20.90
2022-08-19T20:33:07.924Z,22.30
2022-08-19T20:35:36.799Z,20.20
2022-08-19T20:38:08.813Z,20.80
2022-08-19T20:40:39.231Z,19.50
2022-08-19T20:43:13.482Z,20.80
2022-08-19T20:48:10.308Z,20.80
2022-08-19T20:50:37.748Z,19.30
2022-08-19T20:53:19.352Z,20.80
2022-08-19T20:55:51.059Z,21.70
2022-08-19T20:58:21.068Z,20.20
2022-08-19T21:00:49.554Z,20.90
2022-08-19T21:03:18.756Z,20.90
2022-08-19T21:05:46.428Z,21.30
2022-08-19T21:08:14.447Z,20.90
2022-08-19T21:10:42.497Z,20.90
2022-08-19T21:13:09.308Z,22.00
2022-08-19T21:15:40.466Z,20.10
2022-08-19T21:18:08.342Z,20.80
2022-08-19T21:20:35.060Z,21.20
2022-08-19T21:23:06.469Z,20.80
2022-08-19T21:30:28.160Z,21.70
2022-08-19T21:32:55.385Z,19.40
2022-08-19T21:35:23.610Z,19.50
2022-08-19T21:37:51.153Z,21.80
2022-08-19T21:40:18.876Z,19.60
2022-08-19T21:42:46.439Z,21.20
2022-08-19T21:45:14.569Z,21.10
2022-08-19T21:47:44.496Z,21.80
2022-08-19T21:50:11.500Z,20.90
2022-08-19T21:52:39.242Z,20.90
2022-08-19T21:55:07.622Z,22.40
2022-08-19T22:02:33.536Z,19.50
2022-08-19T22:07:34.524Z,19.40
2022-08-19T22:10:02.749Z,20.20
2022-08-19T22:12:32.717Z,22.30
2022-08-19T22:15:00.353Z,20.70
2022-08-19T22:17:27.495Z,20.00
2022-08-19T22:19:55.935Z,20.50
2022-08-19T22:22:31.596Z,20.80
2022-08-19T22:25:13.778Z,19.90
2022-08-19T22:28:03.387Z,22.20
2022-08-19T22:30:33.788Z,21.00
2022-08-19T22:33:03.912Z,22.40
2022-08-19T22:35:32.490Z,21.90
2022-08-19T22:38:00.397Z,20.80
2022-08-19T22:40:29.579Z,21.90
2022-08-19T22:43:04.605Z,19.50
2022-08-19T22:45:33.356Z,22.00
2022-08-19T22:48:00.200Z,19.60
2022-08-19T22:52:58.759Z,20.90
2022-08-19T22:55:26.861Z,20.90
2022-08-19T23:00:23.704Z,19.90
2022-08-19T23:05:21.832Z,22.20
2022-08-19T23:07:52.558Z,20.80
2022-08-19T23:10:27.661Z,22.30
2022-08-19T23:12:56.956Z,21.30
2022-08-19T23:15:27.249Z,21.90
2022-08-19T23:17:56.461Z,19.20
2022-08-19T23:20:26.870Z,19.30
2022-08-19T23:22:54.911Z,22.20
2022-08-19T23:25:25.503Z,20.60
2022-08-19T23:28:11.436Z,22.10
2022-08-19T23:30:43.607Z,20.70
2022-08-19T23:33:44.344Z,21.20
2022-08-19T23:36:18.741Z,21.70
2022-08-19T23:38:48.009Z,20.40
2022-08-19T23:41:16.599Z,21.60
2022-08-19T23:43:44.450Z,19.80
2022-08-19T23:46:13.563Z,21.20
2022-08-19T23:51:10.340Z,20.70
2022-08-19T23:53:38.976Z,22.10
2022-08-19T23:56:07.553Z,22.00
2022-08-19T23:58:35.764Z,20.70
